createdAt,value
2022-09-30T00:00:37.239Z,89.23
2022-09-30T00:01:37.269Z,89.85
2022-09-30T00:02:37.218Z,89.64
2022-09-30T00:03:37.192Z,90.09
2022-09-30T00:04:37.188Z,89.54
2022-09-30T00:05:37.177Z,89.44
2022-09-30T00:06:37.181Z,89.54
2022-09-30T00:07:37.149Z,89.64
2022-09-30T00:08:37.158Z,89.75
2022-09-30T00:09:37.164Z,89.34
2022-09-30T00:10:37.132Z,89.85
2022-09-30T00:11:37.099Z,90.16
2022-09-30T00:12:37.091Z,90.06
2022-09-30T00:13:37.086Z,90.16
2022-09-30T00:14:37.067Z,89.95
2022-09-30T00:15:37.061Z,89.34
2022-09-30T00:16:37.132Z,89.75
2022-09-30T00:17:37.036Z,89.64
2022-09-30T00:18:37.024Z,89.28
2022-09-30T00:19:37.013Z,89.79
2022-09-30T00:20:37.024Z,89.64
2022-09-30T00:21:37.007Z,89.69
2022-09-30T00:22:36.999Z,89.79
2022-09-30T00:23:36.968Z,90.09
2022-09-30T00:24:36.970Z,90.20
2022-09-30T00:25:36.954Z,89.17
2022-09-30T00:26:36.940Z,89.28
2022-09-30T00:27:36.941Z,88.90
2022-09-30T00:28:36.932Z,88.86
2022-09-30T00:29:36.904Z,89.17
2022-09-30T00:30:36.883Z,89.28
2022-09-30T00:31:36.943Z,89.38
2022-09-30T00:32:36.887Z,89.28
2022-09-30T00:33:36.881Z,90.30
2022-09-30T00:34:36.841Z,90.00
2022-09-30T00:35:36.829Z,89.79
2022-09-30T00:36:36.816Z,89.38
2022-09-30T00:37:36.817Z,89.89
2022-09-30T00:38:36.825Z,89.48
2022-09-30T00:39:36.787Z,89.22
2022-09-30T00:40:36.793Z,89.52
2022-09-30T00:41:36.764Z,89.52
2022-09-30T00:42:36.755Z,89.31
2022-09-30T00:43:36.761Z,89.31
2022-09-30T00:44:36.762Z,90.03
2022-09-30T00:45:36.723Z,89.83
2022-09-30T00:46:38.943Z,89.94
2022-09-30T00:47:37.696Z,89.62
2022-09-30T00:48:36.736Z,90.24
2022-09-30T00:49:36.687Z,90.34
2022-09-30T00:50:36.687Z,90.03
2022-09-30T00:51:36.654Z,89.94
2022-09-30T00:52:36.657Z,90.24
2022-09-30T00:53:36.640Z,90.28
2022-09-30T00:54:36.723Z,90.55
2022-09-30T00:55:36.611Z,90.45
2022-09-30T00:56:36.618Z,91.17
2022-09-30T00:57:36.603Z,90.75
2022-09-30T00:58:36.581Z,90.69
2022-09-30T00:59:36.560Z,90.24
2022-09-30T01:00:36.635Z,89.87
2022-09-30T01:01:36.572Z,90.03
2022-09-30T01:02:36.528Z,89.87
2022-09-30T01:03:36.537Z,89.97
2022-09-30T01:04:36.502Z,89.87
2022-09-30T01:05:36.501Z,89.97
2022-09-30T01:06:36.497Z,89.36
2022-09-30T01:07:36.473Z,89.36
2022-09-30T01:08:36.475Z,89.77
2022-09-30T01:09:36.485Z,89.94
2022-09-30T01:10:36.435Z,89.87
2022-09-30T01:11:36.446Z,89.67
2022-09-30T01:12:36.433Z,89.97
2022-09-30T01:13:36.409Z,90.08
2022-09-30T01:14:36.411Z,90.18
2022-09-30T01:15:36.384Z,90.08
2022-09-30T01:16:36.459Z,90.18
2022-09-30T01:17:36.361Z,90.39
2022-09-30T01:18:36.351Z,90.59
2022-09-30T01:19:36.357Z,90.59
2022-09-30T01:20:36.332Z,90.59
2022-09-30T01:21:36.316Z,90.08
2022-09-30T01:22:41.339Z,90.43
2022-09-30T01:23:37.298Z,90.59
2022-09-30T01:24:36.278Z,91.05
2022-09-30T01:25:36.279Z,90.53
2022-09-30T01:26:36.257Z,90.73
2022-09-30T01:27:36.261Z,90.49
2022-09-30T01:28:36.249Z,90.49
2022-09-30T01:29:36.223Z,90.33
2022-09-30T01:30:36.221Z,90.12
2022-09-30T01:31:36.311Z,89.81
2022-09-30T01:32:36.187Z,90.12
2022-09-30T01:33:36.186Z,90.01
2022-09-30T01:34:36.188Z,89.61
2022-09-30T01:35:36.171Z,89.61
2022-09-30T01:36:36.151Z,90.43
2022-09-30T01:37:36.133Z,89.91
2022-09-30T01:38:36.128Z,90.12
2022-09-30T01:39:36.115Z,89.61
2022-09-30T01:40:36.129Z,90.01
2022-09-30T01:41:36.092Z,90.22
2022-09-30T01:42:36.088Z,90.94
2022-09-30T01:43:36.072Z,90.64
2022-09-30T01:44:36.073Z,90.64
2022-09-30T01:45:36.051Z,90.73
2022-09-30T01:46:36.109Z,90.53
2022-09-30T01:47:36.034Z,90.53
2022-09-30T01:48:36.008Z,90.64
2022-09-30T01:49:36.005Z,90.59
2022-09-30T01:50:35.992Z,90.94
2022-09-30T01:51:35.984Z,91.25
2022-09-30T01:52:35.989Z,91.05
2022-09-30T01:53:35.954Z,90.84
2022-09-30T01:54:35.942Z,90.94
2022-09-30T01:55:35.934Z,90.64
2022-09-30T01:56:35.918Z,90.73
2022-09-30T01:57:35.927Z,90.73
2022-09-30T01:58:35.897Z,90.94
2022-09-30T01:59:35.894Z,91.30
2022-09-30T02:00:35.950Z,90.73
2022-09-30T02:01:35.865Z,90.84
2022-09-30T02:02:35.859Z,90.99
2022-09-30T02:03:35.850Z,91.09
2022-09-30T02:04:35.829Z,91.09
2022-09-30T02:05:35.847Z,91.30
2022-09-30T02:06:35.806Z,90.88
2022-09-30T02:07:35.806Z,91.19
2022-09-30T02:08:35.782Z,90.47
2022-09-30T02:09:42.925Z,90.47
2022-09-30T02:10:35.759Z,91.09
2022-09-30T02:11:35.751Z,90.47
2022-09-30T02:12:35.740Z,90.88
2022-09-30T02:13:35.739Z,90.94
2022-09-30T02:14:35.721Z,90.67
2022-09-30T02:15:40.257Z,91.09
2022-09-30T02:16:35.764Z,91.09
2022-09-30T02:17:35.701Z,90.88
2022-09-30T02:18:35.681Z,91.30
2022-09-30T02:19:35.659Z,91.09
2022-09-30T02:20:35.657Z,90.57
2022-09-30T02:21:35.641Z,90.26
2022-09-30T02:22:35.644Z,89.75
2022-09-30T02:23:35.647Z,89.95
2022-09-30T02:24:35.602Z,89.85
2022-09-30T02:25:35.601Z,90.47
2022-09-30T02:26:35.582Z,90.26
2022-09-30T02:27:35.572Z,90.47
2022-09-30T02:28:35.563Z,90.67
2022-09-30T02:29:35.562Z,90.99
2022-09-30T02:30:35.537Z,91.50
2022-09-30T02:31:35.602Z,91.30
2022-09-30T02:32:35.537Z,90.88
2022-09-30T02:33:35.508Z,90.37
2022-09-30T02:34:35.497Z,90.31
2022-09-30T02:35:35.498Z,89.69
2022-09-30T02:36:35.465Z,89.79
2022-09-30T02:37:35.462Z,90.26
2022-09-30T02:38:35.458Z,90.61
2022-09-30T02:39:35.444Z,90.92
2022-09-30T02:40:35.424Z,91.13
2022-09-30T02:41:35.424Z,90.82
2022-09-30T02:42:35.407Z,91.40
2022-09-30T02:43:35.403Z,91.64
2022-09-30T02:44:35.378Z,91.64
2022-09-30T02:45:35.378Z,91.34
2022-09-30T02:46:35.470Z,91.13
2022-09-30T02:47:35.349Z,90.78
2022-09-30T02:48:35.345Z,90.82
2022-09-30T02:49:35.331Z,91.54
2022-09-30T02:50:35.322Z,91.03
2022-09-30T02:51:35.319Z,91.24
2022-09-30T02:52:35.281Z,91.44
2022-09-30T02:53:35.282Z,91.03
2022-09-30T02:54:35.271Z,91.24
2022-09-30T02:55:35.280Z,91.54
2022-09-30T02:56:35.254Z,91.24
2022-09-30T02:57:35.232Z,90.82
2022-09-30T02:58:35.235Z,90.78
2022-09-30T02:59:35.212Z,90.51
2022-09-30T03:00:35.231Z,90.72
2022-09-30T03:01:35.259Z,90.61
2022-09-30T03:02:35.185Z,90.82
2022-09-30T03:03:35.173Z,90.82
2022-09-30T03:04:35.175Z,91.34
2022-09-30T03:05:35.136Z,90.82
2022-09-30T03:06:35.147Z,91.13
2022-09-30T03:07:35.125Z,90.72
2022-09-30T03:08:35.132Z,90.10
2022-09-30T03:09:35.301Z,89.73
2022-09-30T03:10:35.080Z,90.20
2022-09-30T03:11:35.081Z,89.58
2022-09-30T03:12:35.077Z,90.10
2022-09-30T03:13:35.065Z,91.07
2022-09-30T03:14:35.038Z,91.54
2022-09-30T03:15:35.042Z,91.38
2022-09-30T03:16:35.096Z,91.58
2022-09-30T03:17:35.003Z,91.28
2022-09-30T03:18:35.003Z,91.54
2022-09-30T03:19:34.998Z,91.64
2022-09-30T03:20:34.988Z,90.92
2022-09-30T03:21:34.968Z,91.07
2022-09-30T03:22:34.948Z,91.28
2022-09-30T03:23:34.948Z,91.44
2022-09-30T03:24:34.930Z,91.03
2022-09-30T03:25:34.913Z,91.54
2022-09-30T03:26:34.899Z,91.58
2022-09-30T03:27:34.896Z,92.10
2022-09-30T03:28:34.905Z,91.44
2022-09-30T03:29:34.875Z,91.24
2022-09-30T03:30:34.868Z,91.38
2022-09-30T03:31:34.925Z,91.44
2022-09-30T03:32:34.835Z,91.38
2022-09-30T03:33:34.822Z,91.48
2022-09-30T03:34:34.817Z,91.48
2022-09-30T03:35:34.804Z,91.28
2022-09-30T03:36:34.809Z,91.38
2022-09-30T03:37:34.780Z,91.07
2022-09-30T03:38:34.766Z,91.17
2022-09-30T03:39:34.760Z,91.28
2022-09-30T03:40:34.759Z,91.28
2022-09-30T03:41:34.736Z,91.17
2022-09-30T03:42:34.736Z,91.17
2022-09-30T03:43:34.711Z,91.28
2022-09-30T03:44:34.704Z,91.48
2022-09-30T03:45:34.684Z,91.38
2022-09-30T03:46:34.743Z,91.38
2022-09-30T03:47:34.670Z,91.38
2022-09-30T03:48:34.654Z,91.28
2022-09-30T03:49:34.648Z,91.38
2022-09-30T03:50:34.635Z,91.17
2022-09-30T03:51:34.620Z,90.86
2022-09-30T03:52:34.701Z,91.48
2022-09-30T03:53:34.596Z,90.97
2022-09-30T03:54:34.596Z,91.28
2022-09-30T03:55:34.580Z,91.28
2022-09-30T03:56:34.564Z,91.48
2022-09-30T03:57:34.572Z,91.17
2022-09-30T03:58:34.544Z,91.48
2022-09-30T03:59:34.543Z,91.48
2022-09-30T04:00:34.549Z,91.38
2022-09-30T04:01:34.584Z,91.07
2022-09-30T04:02:34.495Z,91.07
2022-09-30T04:03:34.498Z,91.58
2022-09-30T04:04:34.481Z,91.17
2022-09-30T04:05:34.461Z,91.07
2022-09-30T04:06:34.467Z,91.07
2022-09-30T04:07:34.442Z,91.58
2022-09-30T04:08:34.440Z,91.11
2022-09-30T04:09:34.456Z,91.32
2022-09-30T04:10:34.401Z,91.11
2022-09-30T04:11:34.470Z,91.42
2022-09-30T04:12:34.387Z,91.32
2022-09-30T04:13:34.374Z,90.91
2022-09-30T04:14:34.363Z,91.52
2022-09-30T04:15:34.358Z,91.11
2022-09-30T04:16:34.431Z,91.42
2022-09-30T04:17:34.337Z,91.42
2022-09-30T04:18:34.312Z,91.42
2022-09-30T04:19:34.308Z,91.63
2022-09-30T04:20:34.294Z,91.63
2022-09-30T04:21:34.301Z,91.73
2022-09-30T04:22:34.266Z,91.32
2022-09-30T04:23:34.252Z,91.11
2022-09-30T04:24:34.260Z,91.63
2022-09-30T04:25:34.232Z,91.32
2022-09-30T04:26:34.224Z,91.32
2022-09-30T04:27:34.222Z,91.42
2022-09-30T04:28:34.201Z,91.11
2022-09-30T04:29:34.184Z,91.22
2022-09-30T04:30:34.169Z,91.11
2022-09-30T04:31:34.198Z,91.32
2022-09-30T04:32:34.159Z,91.11
2022-09-30T04:33:34.137Z,91.22
2022-09-30T04:34:34.130Z,91.11
2022-09-30T04:35:34.115Z,91.52
2022-09-30T04:36:34.105Z,91.32
2022-09-30T04:37:34.092Z,91.52
2022-09-30T04:38:34.096Z,91.32
2022-09-30T04:39:34.090Z,91.32
2022-09-30T04:40:34.080Z,91.42
2022-09-30T04:41:34.056Z,91.11
2022-09-30T04:42:34.038Z,91.42
2022-09-30T04:43:34.033Z,91.63
2022-09-30T04:44:34.015Z,91.11
2022-09-30T04:45:34.042Z,91.11
2022-09-30T04:46:33.992Z,91.77
2022-09-30T04:47:33.979Z,91.05
2022-09-30T04:48:33.982Z,91.16
2022-09-30T04:49:33.976Z,91.16
2022-09-30T04:50:33.955Z,91.36
2022-09-30T04:51:33.942Z,91.56
2022-09-30T04:52:33.933Z,91.46
2022-09-30T04:53:33.916Z,91.36
2022-09-30T04:54:33.907Z,91.36
2022-09-30T04:55:33.903Z,91.46
2022-09-30T04:56:33.955Z,91.77
2022-09-30T04:57:33.866Z,91.67
2022-09-30T04:58:36.991Z,91.56
2022-09-30T04:59:33.894Z,91.67
2022-09-30T05:00:33.969Z,91.63
2022-09-30T05:01:33.841Z,91.77
2022-09-30T05:02:33.812Z,91.88
2022-09-30T05:03:33.800Z,91.77
2022-09-30T05:04:33.792Z,91.77
2022-09-30T05:05:33.780Z,91.88
2022-09-30T05:06:33.782Z,92.40
2022-09-30T05:07:33.756Z,92.40
2022-09-30T05:08:33.752Z,91.46
2022-09-30T05:09:33.913Z,91.16
2022-09-30T05:10:33.756Z,91.56
2022-09-30T05:11:33.706Z,91.20
2022-09-30T05:12:33.717Z,91.30
2022-09-30T05:13:33.684Z,90.99
2022-09-30T05:14:33.685Z,91.20
2022-09-30T05:15:33.665Z,91.30
2022-09-30T05:16:33.777Z,91.30
2022-09-30T05:17:33.640Z,91.50
2022-09-30T05:18:33.628Z,91.71
2022-09-30T05:19:33.627Z,91.82
2022-09-30T05:20:33.612Z,91.40
2022-09-30T05:21:33.594Z,91.71
2022-09-30T05:22:33.609Z,91.61
2022-09-30T05:23:33.578Z,91.50
2022-09-30T05:24:33.577Z,91.40
2022-09-30T05:25:33.546Z,91.82
2022-09-30T05:26:33.552Z,91.50
2022-09-30T05:27:33.541Z,91.71
2022-09-30T05:28:33.537Z,91.61
2022-09-30T05:29:33.507Z,91.61
2022-09-30T05:30:33.498Z,91.30
2022-09-30T05:31:33.571Z,91.61
2022-09-30T05:32:33.481Z,91.50
2022-09-30T05:33:33.465Z,91.09
2022-09-30T05:34:33.452Z,90.99
2022-09-30T05:35:33.438Z,91.24
2022-09-30T05:36:33.423Z,91.20
2022-09-30T05:37:33.418Z,91.71
2022-09-30T05:38:33.407Z,91.34
2022-09-30T05:39:33.400Z,91.50
2022-09-30T05:40:33.382Z,91.71
2022-09-30T05:41:33.366Z,91.92
2022-09-30T05:42:33.354Z,91.50
2022-09-30T05:43:33.343Z,92.64
2022-09-30T05:44:33.380Z,92.44
2022-09-30T05:45:33.328Z,92.44
2022-09-30T05:46:33.421Z,93.16
2022-09-30T05:47:33.299Z,92.85
2022-09-30T05:48:33.291Z,92.95
2022-09-30T05:49:33.276Z,92.60
2022-09-30T05:50:33.277Z,92.74
2022-09-30T05:51:33.260Z,92.60
2022-09-30T05:52:33.247Z,92.91
2022-09-30T05:53:33.237Z,92.60
2022-09-30T05:54:33.228Z,92.70
2022-09-30T05:55:37.064Z,92.60
2022-09-30T05:56:34.205Z,93.01
2022-09-30T05:57:33.190Z,93.01
2022-09-30T05:58:33.183Z,92.80
2022-09-30T05:59:33.158Z,92.50
2022-09-30T06:00:33.168Z,92.60
2022-09-30T06:01:33.148Z,92.50
2022-09-30T06:02:33.293Z,92.50
2022-09-30T06:03:33.125Z,93.32
2022-09-30T06:04:33.112Z,93.73
2022-09-30T06:05:33.111Z,93.07
2022-09-30T06:06:33.098Z,93.49
2022-09-30T06:07:33.080Z,93.28
2022-09-30T06:08:33.069Z,93.28
2022-09-30T06:09:33.122Z,93.38
2022-09-30T06:10:33.042Z,93.28
2022-09-30T06:11:33.032Z,93.59
2022-09-30T06:12:33.023Z,93.38
2022-09-30T06:13:32.998Z,93.49
2022-09-30T06:14:33.006Z,93.28
2022-09-30T06:15:32.979Z,93.49
2022-09-30T06:16:33.115Z,93.18
2022-09-30T06:17:32.957Z,93.38
2022-09-30T06:18:32.952Z,93.38
2022-09-30T06:19:32.937Z,93.34
2022-09-30T06:20:32.939Z,93.18
2022-09-30T06:21:32.916Z,93.18
2022-09-30T06:22:32.915Z,93.13
2022-09-30T06:23:32.889Z,93.03
2022-09-30T06:24:32.877Z,93.24
2022-09-30T06:25:32.864Z,93.34
2022-09-30T06:26:32.860Z,93.54
2022-09-30T06:27:32.847Z,93.34
2022-09-30T06:28:32.859Z,93.34
2022-09-30T06:29:32.825Z,93.13
2022-09-30T06:30:35.199Z,93.40
2022-09-30T06:31:32.843Z,93.13
2022-09-30T06:32:32.810Z,93.19
2022-09-30T06:33:32.790Z,93.50
2022-09-30T06:34:32.784Z,93.40
2022-09-30T06:35:32.756Z,93.50
2022-09-30T06:36:32.753Z,93.60
2022-09-30T06:37:32.725Z,93.19
2022-09-30T06:38:32.739Z,93.60
2022-09-30T06:39:32.703Z,93.40
2022-09-30T06:40:32.713Z,94.12
2022-09-30T06:41:32.690Z,94.53
2022-09-30T06:42:32.689Z,93.98
2022-09-30T06:43:40.246Z,94.08
2022-09-30T06:44:39.789Z,94.38
2022-09-30T06:45:33.636Z,95.06
2022-09-30T06:46:32.783Z,95.58
2022-09-30T06:47:32.633Z,95.27
2022-09-30T06:48:38.231Z,95.37
2022-09-30T06:49:44.007Z,95.74
2022-09-30T06:50:33.594Z,95.48
2022-09-30T06:51:32.578Z,95.64
2022-09-30T06:52:32.562Z,96.36
2022-09-30T06:53:32.548Z,95.95
2022-09-30T06:54:32.535Z,95.95
2022-09-30T06:55:32.622Z,96.05
2022-09-30T06:56:32.520Z,95.70
2022-09-30T06:57:32.510Z,95.70
2022-09-30T06:58:32.490Z,95.90
2022-09-30T06:59:32.477Z,96.00
2022-09-30T07:00:32.586Z,96.37
2022-09-30T07:01:32.460Z,96.37
2022-09-30T07:02:32.575Z,96.37
2022-09-30T07:03:32.430Z,95.86
2022-09-30T07:04:32.466Z,95.50
2022-09-30T07:05:32.431Z,95.50
2022-09-30T07:06:32.425Z,95.50
2022-09-30T07:07:32.385Z,95.50
2022-09-30T07:08:32.386Z,95.81
2022-09-30T07:09:32.407Z,95.92
2022-09-30T07:10:32.355Z,95.71
2022-09-30T07:11:32.343Z,96.33
2022-09-30T07:12:32.334Z,96.22
2022-09-30T07:13:32.323Z,96.08
2022-09-30T07:14:32.320Z,96.18
2022-09-30T07:15:32.300Z,95.77
2022-09-30T07:16:32.361Z,95.97
2022-09-30T07:17:32.292Z,95.56
2022-09-30T07:18:32.263Z,95.21
2022-09-30T07:19:32.267Z,95.62
2022-09-30T07:20:32.266Z,95.52
2022-09-30T07:21:32.240Z,95.72
2022-09-30T07:22:32.238Z,95.21
2022-09-30T07:23:32.219Z,95.57
2022-09-30T07:24:32.198Z,95.68
2022-09-30T07:25:32.188Z,95.47
2022-09-30T07:26:32.177Z,95.64
2022-09-30T07:27:32.183Z,94.56
2022-09-30T07:28:32.151Z,94.67
2022-09-30T07:29:44.598Z,94.36
2022-09-30T07:30:33.128Z,93.64
2022-09-30T07:31:34.014Z,93.60
2022-09-30T07:32:32.190Z,93.39
2022-09-30T07:33:32.095Z,92.78
2022-09-30T07:34:32.084Z,92.53
2022-09-30T07:35:32.073Z,92.83
2022-09-30T07:36:34.245Z,92.53
2022-09-30T07:37:32.087Z,91.71
2022-09-30T07:38:32.044Z,91.77
2022-09-30T07:39:32.036Z,92.08
2022-09-30T07:40:32.018Z,91.73
2022-09-30T07:41:32.005Z,91.42
2022-09-30T07:42:32.005Z,90.97
2022-09-30T07:43:31.994Z,90.11
2022-09-30T07:44:31.977Z,89.65
2022-09-30T07:45:32.019Z,88.49
2022-09-30T07:46:31.951Z,86.91
2022-09-30T07:47:31.942Z,86.57
2022-09-30T07:48:31.930Z,86.16
2022-09-30T07:49:31.915Z,85.89
2022-09-30T07:50:31.915Z,85.89
2022-09-30T07:51:31.894Z,85.49
2022-09-30T07:52:31.905Z,85.28
2022-09-30T07:53:31.867Z,84.77
2022-09-30T07:54:31.861Z,84.77
2022-09-30T07:55:31.859Z,84.57
2022-09-30T07:56:51.248Z,84.67
2022-09-30T07:57:32.825Z,84.53
2022-09-30T07:58:31.836Z,84.59
2022-09-30T07:59:31.833Z,84.08
2022-09-30T08:00:42.200Z,83.84
2022-09-30T08:01:32.837Z,83.53
2022-09-30T08:02:31.821Z,82.92
2022-09-30T08:03:31.761Z,82.88
2022-09-30T08:04:31.763Z,82.57
2022-09-30T08:05:31.734Z,82.88
2022-09-30T08:06:31.735Z,81.93
2022-09-30T08:07:31.715Z,82.23
2022-09-30T08:08:31.735Z,82.54
2022-09-30T08:09:31.854Z,82.13
2022-09-30T08:10:31.688Z,81.41
2022-09-30T08:11:31.663Z,81.11
2022-09-30T08:12:31.660Z,81.52
2022-09-30T08:13:31.650Z,82.33
2022-09-30T08:14:31.633Z,81.62
2022-09-30T08:15:31.632Z,80.91
2022-09-30T08:16:31.662Z,81.11
2022-09-30T08:17:31.597Z,81.01
2022-09-30T08:18:31.601Z,81.21
2022-09-30T08:19:31.577Z,81.41
2022-09-30T08:20:31.574Z,82.74
2022-09-30T08:21:31.553Z,81.38
2022-09-30T08:22:31.551Z,81.38
2022-09-30T08:23:31.536Z,81.38
2022-09-30T08:24:31.553Z,81.58
2022-09-30T08:25:31.546Z,80.26
2022-09-30T08:26:31.500Z,80.52
2022-09-30T08:27:31.537Z,79.85
2022-09-30T08:28:31.477Z,79.61
2022-09-30T08:30:32.474Z,80.52
2022-09-30T08:31:31.511Z,80.32
2022-09-30T08:32:31.433Z,79.71
2022-09-30T08:33:31.419Z,79.41
2022-09-30T08:34:31.430Z,79.81
2022-09-30T08:35:31.411Z,79.27
2022-09-30T08:36:31.389Z,79.41
2022-09-30T08:37:31.378Z,78.80
2022-09-30T08:38:31.362Z,78.39
2022-09-30T08:39:31.374Z,78.76
2022-09-30T08:40:31.373Z,78.86
2022-09-30T08:41:31.368Z,78.62
2022-09-30T08:42:40.551Z,78.55
2022-09-30T08:43:32.306Z,78.66
2022-09-30T08:44:31.297Z,78.76
2022-09-30T08:45:31.335Z,77.91
2022-09-30T08:46:31.302Z,78.11
2022-09-30T08:47:31.270Z,78.08
2022-09-30T08:48:31.259Z,76.86
2022-09-30T08:49:31.237Z,77.33
2022-09-30T08:50:31.232Z,77.53
2022-09-30T08:51:31.221Z,76.82
2022-09-30T08:52:47.781Z,77.33
2022-09-30T08:53:32.196Z,76.31
2022-09-30T08:54:31.180Z,76.31
2022-09-30T08:55:31.186Z,75.60
2022-09-30T08:56:31.179Z,76.21
2022-09-30T08:57:31.160Z,75.76
2022-09-30T08:58:31.145Z,75.46
2022-09-30T08:59:31.132Z,75.67
2022-09-30T09:00:31.110Z,75.05
2022-09-30T09:01:31.173Z,75.83
2022-09-30T09:02:31.173Z,74.62
2022-09-30T09:03:31.079Z,74.62
2022-09-30T09:04:31.131Z,74.10
2022-09-30T09:05:31.062Z,75.32
2022-09-30T09:06:31.084Z,75.22
2022-09-30T09:07:31.037Z,74.88
2022-09-30T09:08:31.055Z,73.50
2022-09-30T09:09:31.013Z,73.66
2022-09-30T09:10:31.004Z,74.07
2022-09-30T09:11:30.991Z,73.87
2022-09-30T09:12:30.999Z,73.36
2022-09-30T09:13:30.968Z,72.96
2022-09-30T09:14:30.972Z,73.06
2022-09-30T09:15:30.968Z,73.36
2022-09-30T09:16:31.031Z,72.96
2022-09-30T09:17:30.927Z,73.16
2022-09-30T09:18:30.922Z,73.12
2022-09-30T09:19:30.907Z,73.53
2022-09-30T09:20:30.897Z,72.61
2022-09-30T09:21:30.878Z,72.72
2022-09-30T09:22:30.868Z,72.58
2022-09-30T09:23:30.900Z,72.17
2022-09-30T09:24:30.840Z,72.38
2022-09-30T09:25:30.833Z,72.04
2022-09-30T09:26:30.820Z,72.68
2022-09-30T09:28:30.884Z,72.17
2022-09-30T09:29:30.812Z,72.28
2022-09-30T09:30:30.775Z,72.65
2022-09-30T09:31:30.832Z,72.38
2022-09-30T09:32:30.755Z,71.53
2022-09-30T09:33:30.748Z,72.55
2022-09-30T09:34:30.757Z,71.64
2022-09-30T09:35:30.721Z,71.44
2022-09-30T09:36:30.710Z,71.70
2022-09-30T09:37:30.696Z,72.31
2022-09-30T09:38:30.683Z,72.01
2022-09-30T09:39:30.688Z,72.41
2022-09-30T09:40:30.680Z,72.41
2022-09-30T09:41:30.665Z,72.01
2022-09-30T09:42:30.741Z,71.57
2022-09-30T09:43:30.631Z,71.91
2022-09-30T09:44:30.690Z,71.09
2022-09-30T09:45:30.655Z,71.09
2022-09-30T09:46:30.591Z,72.17
2022-09-30T09:47:30.723Z,72.28
2022-09-30T09:48:30.572Z,71.06
2022-09-30T09:49:30.570Z,71.77
2022-09-30T09:50:30.555Z,71.94
2022-09-30T09:51:30.539Z,72.38
2022-09-30T09:52:30.531Z,71.94
2022-09-30T09:53:30.538Z,71.13
2022-09-30T09:54:30.504Z,71.80
2022-09-30T09:55:30.509Z,70.39
2022-09-30T09:56:32.476Z,69.92
2022-09-30T09:57:30.472Z,69.98
2022-09-30T09:58:30.457Z,69.89
2022-09-30T09:59:30.449Z,69.27
2022-09-30T10:00:30.477Z,69.78
2022-09-30T10:01:30.498Z,69.98
2022-09-30T10:02:30.469Z,69.48
2022-09-30T10:03:30.405Z,70.39
2022-09-30T10:04:30.413Z,70.29
2022-09-30T10:05:30.418Z,70.09
2022-09-30T10:06:30.404Z,70.39
2022-09-30T10:07:31.131Z,69.85
2022-09-30T10:08:30.447Z,69.24
2022-09-30T10:09:30.335Z,68.13
2022-09-30T10:10:30.323Z,69.24
2022-09-30T10:11:30.321Z,69.11
2022-09-30T10:12:30.302Z,68.51
2022-09-30T10:13:30.299Z,68.40
2022-09-30T10:14:30.295Z,68.40
2022-09-30T10:15:30.266Z,68.40
2022-09-30T10:16:30.302Z,68.57
2022-09-30T10:17:30.242Z,68.60
2022-09-30T10:18:30.230Z,66.55
2022-09-30T10:19:30.226Z,66.78
2022-09-30T10:20:30.203Z,67.19
2022-09-30T10:21:30.196Z,67.90
2022-09-30T10:22:30.209Z,68.20
2022-09-30T10:23:30.178Z,68.60
2022-09-30T10:24:30.164Z,68.27
2022-09-30T10:25:30.165Z,68.27
2022-09-30T10:26:30.146Z,67.33
2022-09-30T10:27:30.139Z,66.72
2022-09-30T10:28:30.232Z,66.42
2022-09-30T10:29:30.979Z,65.95
2022-09-30T10:30:30.111Z,66.22
2022-09-30T10:31:30.237Z,68.30
2022-09-30T10:32:30.095Z,67.33
2022-09-30T10:33:30.064Z,65.08
2022-09-30T10:34:30.956Z,65.08
2022-09-30T10:35:30.037Z,64.61
2022-09-30T10:36:30.040Z,64.43
2022-09-30T10:37:30.012Z,65.71
2022-09-30T10:38:30.131Z,65.04
2022-09-30T10:39:30.029Z,64.61
2022-09-30T10:40:29.983Z,65.71
2022-09-30T10:41:30.030Z,66.12
2022-09-30T10:42:29.956Z,65.78
2022-09-30T10:43:29.997Z,64.47
2022-09-30T10:44:29.930Z,64.47
2022-09-30T10:45:29.971Z,64.50
2022-09-30T10:46:29.962Z,64.61
2022-09-30T10:47:35.493Z,65.31
2022-09-30T10:48:29.945Z,65.21
2022-09-30T10:49:29.881Z,64.87
2022-09-30T10:50:29.862Z,64.87
2022-09-30T10:51:30.182Z,64.37
2022-09-30T10:52:29.875Z,65.08
2022-09-30T10:53:29.862Z,64.47
2022-09-30T10:54:29.818Z,66.59
2022-09-30T10:55:29.841Z,64.24
2022-09-30T10:56:29.795Z,64.75
2022-09-30T10:57:29.786Z,64.75
2022-09-30T10:58:29.810Z,64.72
2022-09-30T10:59:29.778Z,64.21
2022-09-30T11:00:29.751Z,64.21
2022-09-30T11:01:30.365Z,63.70
2022-09-30T11:02:29.727Z,63.64
2022-09-30T11:03:29.812Z,63.93
2022-09-30T11:04:29.855Z,63.81
2022-09-30T11:05:29.703Z,62.32
2022-09-30T11:06:29.951Z,62.52
2022-09-30T11:07:29.673Z,62.85
2022-09-30T11:08:29.682Z,63.46
2022-09-30T11:09:29.652Z,64.75
2022-09-30T11:10:29.684Z,65.05
2022-09-30T11:11:29.628Z,64.31
2022-09-30T11:12:29.611Z,64.18
2022-09-30T11:13:29.606Z,64.28
2022-09-30T11:14:29.591Z,62.37
2022-09-30T11:15:29.584Z,62.70
2022-09-30T11:16:30.083Z,62.80
2022-09-30T11:17:29.557Z,62.90
2022-09-30T11:18:29.544Z,63.81
2022-09-30T11:19:29.534Z,64.34
2022-09-30T11:20:29.544Z,62.93
2022-09-30T11:21:29.529Z,64.11
2022-09-30T11:22:29.498Z,62.83
2022-09-30T11:23:29.494Z,62.73
2022-09-30T11:24:29.476Z,63.50
2022-09-30T11:25:29.486Z,64.51
2022-09-30T11:26:29.928Z,63.70
2022-09-30T11:27:29.445Z,64.51
2022-09-30T11:28:29.455Z,63.81
2022-09-30T11:29:29.423Z,64.21
2022-09-30T11:30:29.409Z,62.19
2022-09-30T11:31:29.464Z,63.00
2022-09-30T11:32:29.405Z,62.87
2022-09-30T11:33:29.389Z,62.57
2022-09-30T11:34:29.361Z,61.25
2022-09-30T11:35:29.356Z,62.54
2022-09-30T11:36:29.754Z,61.63
2022-09-30T11:37:29.369Z,61.66
2022-09-30T11:38:29.316Z,62.16
2022-09-30T11:39:29.316Z,61.46
2022-09-30T11:40:29.294Z,61.05
2022-09-30T11:41:29.285Z,60.78
2022-09-30T11:42:29.305Z,61.49
2022-09-30T11:43:29.270Z,60.81
2022-09-30T11:44:29.247Z,62.32
2022-09-30T11:45:29.272Z,61.14
2022-09-30T11:46:29.822Z,62.65
2022-09-30T11:47:29.244Z,62.76
2022-09-30T11:48:32.643Z,62.76
2022-09-30T11:49:29.196Z,62.76
2022-09-30T11:50:29.181Z,62.76
2022-09-30T11:51:29.175Z,62.02
2022-09-30T11:52:29.187Z,61.11
2022-09-30T11:53:29.172Z,60.00
2022-09-30T11:54:29.138Z,59.80
2022-09-30T11:55:29.128Z,61.01
2022-09-30T11:56:29.533Z,61.29
2022-09-30T11:57:29.103Z,60.91
2022-09-30T11:58:40.989Z,60.41
2022-09-30T11:59:30.102Z,61.52
2022-09-30T12:00:29.077Z,62.22
2022-09-30T12:01:29.088Z,62.63
2022-09-30T12:02:29.059Z,62.52
2022-09-30T12:03:29.092Z,62.83
2022-09-30T12:04:29.045Z,61.21
2022-09-30T12:05:29.014Z,60.81
2022-09-30T12:06:29.330Z,61.21
2022-09-30T12:07:28.997Z,61.41
2022-09-30T12:08:29.015Z,61.08
2022-09-30T12:09:28.985Z,61.86
2022-09-30T12:10:28.955Z,60.08
2022-09-30T12:11:28.947Z,59.88
2022-09-30T12:12:28.933Z,59.30
2022-09-30T12:13:28.967Z,58.69
2022-09-30T12:14:28.912Z,60.10
2022-09-30T12:15:28.900Z,59.90
2022-09-30T12:16:29.249Z,59.93
2022-09-30T12:17:28.909Z,60.03
2022-09-30T12:18:28.874Z,61.55
2022-09-30T12:19:28.856Z,61.41
2022-09-30T12:20:28.840Z,61.61
2022-09-30T12:21:28.837Z,62.02
2022-09-30T12:22:28.854Z,61.32
2022-09-30T12:23:28.830Z,61.32
2022-09-30T12:24:28.816Z,61.41
2022-09-30T12:25:28.786Z,61.61
2022-09-30T12:26:29.001Z,62.73
2022-09-30T12:27:28.766Z,62.65
2022-09-30T12:28:28.849Z,61.92
2022-09-30T12:29:28.742Z,61.52
2022-09-30T12:30:28.726Z,61.61
2022-09-30T12:31:28.751Z,61.61
2022-09-30T12:32:28.709Z,62.93
2022-09-30T12:33:28.699Z,61.52
2022-09-30T12:34:28.692Z,62.02
2022-09-30T12:35:28.714Z,62.02
2022-09-30T12:36:28.936Z,61.72
2022-09-30T12:37:28.650Z,61.92
2022-09-30T12:38:28.635Z,62.09
2022-09-30T12:39:28.648Z,62.63
2022-09-30T12:40:28.632Z,62.32
2022-09-30T12:41:28.613Z,62.63
2022-09-30T12:42:28.589Z,61.65
2022-09-30T12:43:28.589Z,62.38
2022-09-30T12:44:28.572Z,63.59
2022-09-30T12:45:28.594Z,64.00
2022-09-30T12:46:28.961Z,63.76
2022-09-30T12:47:28.536Z,62.25
2022-09-30T12:48:28.523Z,62.25
2022-09-30T12:49:28.531Z,61.47
2022-09-30T12:50:28.502Z,62.15
2022-09-30T12:51:28.501Z,61.75
2022-09-30T12:52:28.478Z,62.79
2022-09-30T12:53:28.466Z,63.87
2022-09-30T12:54:28.496Z,62.59